Time;durP1;ratioP1;P1;durP2;ratioP2;P2;SDS_P1;SDS_P2;PMS_P1;PMS_P2;Temp;Humidity;BMP_temperature;BMP_pressure;BME280_temperature;BME280_humidity;BME280_pressure;Samples;Min_cycle;Max_cycle;Signal;HPM_P1;HPM_P2
2022/10/13 00:00:56;;;;;;;23.97;11.90;;;7.50;99.90;;;;;;5061946;28;20845;-75
2022/10/13 00:03:23;;;;;;;27.47;11.10;;;7.60;99.90;;;;;;5061436;28;20544;-74
2022/10/13 00:05:51;;;;;;;26.00;12.23;;;7.70;99.90;;;;;;5060231;28;20467;-74
2022/10/13 00:08:20;;;;;;;46.13;14.30;;;7.90;99.90;;;;;;5064767;28;20564;-75
2022/10/13 00:10:49;;;;;;;14.53;11.17;;;8.00;99.90;;;;;;5062291;28;20974;-74
2022/10/13 00:13:16;;;;;;;16.07;12.57;;;8.10;99.90;;;;;;5062370;28;20488;-75
2022/10/13 00:15:46;;;;;;;12.00;10.80;;;8.10;99.90;;;;;;5060173;28;20471;-74
2022/10/13 00:18:15;;;;;;;14.63;11.90;;;8.20;99.90;;;;;;5061944;28;20521;-74
2022/10/13 00:20:44;;;;;;;19.13;13.27;;;8.30;99.90;;;;;;5058178;28;20572;-74
2022/10/13 00:23:12;;;;;;;11.80;10.67;;;8.40;99.90;;;;;;5061935;28;20552;-74
2022/10/13 00:25:43;;;;;;;13.33;10.27;;;8.40;99.90;;;;;;5061328;28;20558;-74
2022/10/13 00:28:10;;;;;;;10.70;9.53;;;8.50;99.90;;;;;;5061416;28;20577;-74
2022/10/13 00:30:38;;;;;;;11.23;10.03;;;8.60;99.90;;;;;;5061742;28;20568;-74
2022/10/13 00:33:07;;;;;;;10.90;10.00;;;8.60;99.90;;;;;;5061235;28;20508;-74
2022/10/13 00:35:39;;;;;;;11.13;9.97;;;8.60;99.90;;;;;;5061840;28;20475;-74
2022/10/13 00:38:06;;;;;;;10.87;9.97;;;8.70;99.90;;;;;;5061346;28;20501;-74
2022/10/13 00:40:33;;;;;;;9.53;8.67;;;8.80;99.90;;;;;;5061118;28;20616;-74
2022/10/13 00:43:00;;;;;;;11.67;10.67;;;8.90;99.90;;;;;;5047439;28;20519;-75
2022/10/13 00:45:28;;;;;;;11.37;10.27;;;8.90;99.90;;;;;;5056274;28;20481;-74
2022/10/13 00:47:58;;;;;;;12.20;10.50;;;9.10;99.90;;;;;;5059910;28;21222;-74
2022/10/13 00:50:31;;;;;;;10.13;9.27;;;9.10;99.90;;;;;;5060739;28;20576;-74
2022/10/13 00:53:00;;;;;;;14.83;10.47;;;9.20;99.90;;;;;;5056149;28;21206;-75
2022/10/13 00:55:31;;;;;;;10.53;9.57;;;9.20;99.90;;;;;;5061693;28;20617;-75
2022/10/13 00:58:01;;;;;;;11.10;10.00;;;9.20;99.90;;;;;;5053760;28;20549;-75
2022/10/13 01:00:29;;;;;;;25.07;10.77;;;9.30;99.90;;;;;;5060403;28;20541;-75
2022/10/13 01:02:56;;;;;;;11.17;10.03;;;9.30;99.90;;;;;;5062248;28;20459;-75
2022/10/13 01:05:25;;;;;;;14.17;10.13;;;9.40;99.90;;;;;;5063252;28;20897;-75
2022/10/13 01:07:53;;;;;;;13.67;11.00;;;9.40;99.90;;;;;;5064897;28;20474;-75
2022/10/13 01:10:30;;;;;;;11.30;10.27;;;9.50;99.90;;;;;;5062796;28;20919;-75
2022/10/13 01:13:03;;;;;;;17.80;10.87;;;9.50;99.90;;;;;;5059118;28;20459;-75
2022/10/13 01:15:37;;;;;;;13.50;12.17;;;9.60;99.90;;;;;;5062794;28;21062;-76
2022/10/13 01:18:14;;;;;;;15.50;13.20;;;9.60;99.90;;;;;;5060590;28;20557;-76
2022/10/13 01:21:16;;;;;;;15.87;12.57;;;9.70;99.90;;;;;;5057525;28;20995;-75
2022/10/13 01:24:19;;;;;;;17.50;12.87;;;9.70;99.90;;;;;;5057726;28;20659;-75
2022/10/13 01:27:15;;;;;;;19.80;14.23;;;9.70;99.90;;;;;;5059272;28;20806;-75
2022/10/13 01:30:05;;;;;;;17.90;13.10;;;9.70;99.90;;;;;;5059876;28;20564;-75
2022/10/13 01:32:43;;;;;;;22.67;14.37;;;9.70;99.90;;;;;;5059528;28;20572;-75
2022/10/13 01:35:14;;;;;;;14.23;12.77;;;9.80;99.90;;;;;;5061185;28;20908;-75
2022/10/13 01:37:47;;;;;;;15.27;12.67;;;9.70;99.90;;;;;;5052519;28;20808;-75
2022/10/13 01:40:21;;;;;;;15.53;13.67;;;9.60;99.90;;;;;;5058023;28;20895;-75
2022/10/13 01:42:55;;;;;;;17.17;12.10;;;9.50;99.90;;;;;;5058137;28;20491;-75
2022/10/13 01:45:29;;;;;;;13.43;10.43;;;9.40;99.90;;;;;;5058976;28;20456;-75
2022/10/13 01:47:57;;;;;;;19.77;12.30;;;9.50;99.90;;;;;;5055605;28;20525;-75
2022/10/13 01:50:24;;;;;;;13.43;11.03;;;9.50;99.90;;;;;;5057423;28;20985;-75
2022/10/13 01:52:52;;;;;;;15.33;10.13;;;9.40;99.90;;;;;;5057457;28;20460;-75
2022/10/13 01:55:18;;;;;;;11.80;9.80;;;9.30;99.90;;;;;;5058333;28;20537;-75
2022/10/13 01:57:46;;;;;;;10.63;8.90;;;9.30;99.90;;;;;;5058771;28;20544;-75
2022/10/13 02:00:16;;;;;;;11.60;9.10;;;9.30;99.90;;;;;;5062577;28;20983;-75
2022/10/13 02:02:52;;;;;;;13.00;9.07;;;9.20;99.90;;;;;;5058829;28;20483;-76
2022/10/13 02:05:28;;;;;;;11.03;8.37;;;9.30;99.90;;;;;;5056780;28;20497;-75
2022/10/13 02:08:00;;;;;;;14.83;9.10;;;9.30;99.90;;;;;;5063541;28;20487;-75
2022/10/13 02:10:31;;;;;;;10.63;8.63;;;9.30;99.90;;;;;;5063225;28;20556;-75
2022/10/13 02:13:01;;;;;;;12.23;8.07;;;9.20;99.90;;;;;;5058105;28;20479;-75
2022/10/13 02:15:32;;;;;;;8.97;7.63;;;9.20;99.90;;;;;;5062371;28;20657;-75
2022/10/13 02:18:01;;;;;;;9.73;7.70;;;9.20;99.90;;;;;;5063105;28;20474;-75
2022/10/13 02:20:29;;;;;;;11.63;8.00;;;9.20;99.90;;;;;;5061283;28;20751;-75
2022/10/13 02:23:01;;;;;;;10.67;8.10;;;9.20;99.90;;;;;;5060558;28;20497;-75
2022/10/13 02:25:28;;;;;;;13.03;9.47;;;9.10;99.90;;;;;;5059349;28;21348;-75
2022/10/13 02:27:58;;;;;;;9.03;8.13;;;9.20;99.90;;;;;;5061434;28;20595;-75
2022/10/13 02:30:29;;;;;;;12.43;9.00;;;9.20;99.90;;;;;;5060782;28;20936;-75
2022/10/13 02:32:56;;;;;;;9.93;8.37;;;9.20;99.90;;;;;;5057177;28;20577;-75
2022/10/13 02:35:24;;;;;;;8.07;7.17;;;9.20;99.90;;;;;;5058957;28;20533;-75
2022/10/13 02:37:51;;;;;;;10.17;9.10;;;9.10;99.90;;;;;;5058402;28;20552;-75
2022/10/13 02:40:18;;;;;;;9.57;8.13;;;9.10;99.90;;;;;;5058686;28;20496;-75
2022/10/13 02:42:45;;;;;;;12.90;8.40;;;9.10;99.90;;;;;;5059110;28;20548;-74
2022/10/13 02:45:12;;;;;;;7.83;7.00;;;9.10;99.90;;;;;;5058654;28;20552;-75
2022/10/13 02:47:39;;;;;;;14.40;7.90;;;9.10;99.90;;;;;;5061530;28;20544;-75
2022/10/13 02:50:07;;;;;;;8.83;8.00;;;9.10;99.90;;;;;;5057415;28;20475;-75
2022/10/13 02:52:35;;;;;;;12.33;9.13;;;9.20;99.90;;;;;;5062480;28;20520;-75
2022/10/13 02:55:02;;;;;;;11.00;9.43;;;9.20;99.90;;;;;;5058584;28;20961;-75
2022/10/13 02:57:29;;;;;;;10.60;9.40;;;9.20;99.90;;;;;;5060977;28;21126;-75
2022/10/13 02:59:56;;;;;;;12.67;9.30;;;9.20;99.90;;;;;;5058544;28;20897;-75
2022/10/13 03:02:23;;;;;;;13.77;9.57;;;9.10;99.90;;;;;;5058048;28;20539;-75
2022/10/13 03:04:50;;;;;;;12.80;9.27;;;9.10;99.90;;;;;;5060242;28;20483;-75
2022/10/13 03:07:17;;;;;;;10.87;8.67;;;9.10;99.90;;;;;;5062655;28;20543;-75
2022/10/13 03:09:46;;;;;;;11.33;7.97;;;9.10;99.90;;;;;;5060437;28;20464;-75
2022/10/13 03:12:13;;;;;;;9.70;7.87;;;9.00;99.90;;;;;;5069419;28;20515;-75
2022/10/13 03:14:40;;;;;;;8.23;7.43;;;9.10;99.90;;;;;;5067908;28;20495;-75
2022/10/13 03:17:07;;;;;;;10.30;9.13;;;9.10;99.90;;;;;;5062886;28;20464;-75
2022/10/13 03:19:34;;;;;;;10.40;7.90;;;9.00;99.90;;;;;;5062404;28;20467;-75
2022/10/13 03:22:01;;;;;;;12.10;8.57;;;9.00;99.90;;;;;;5066630;28;20505;-75
2022/10/13 03:24:28;;;;;;;12.13;9.00;;;8.90;99.90;;;;;;5065059;28;20835;-75
2022/10/13 03:26:56;;;;;;;9.23;8.40;;;9.00;99.90;;;;;;5062208;28;21318;-75
2022/10/13 03:29:23;;;;;;;9.33;7.80;;;8.90;99.90;;;;;;5063801;28;20461;-75
2022/10/13 03:31:50;;;;;;;10.70;8.07;;;8.90;99.90;;;;;;5064349;28;20475;-75
2022/10/13 03:34:19;;;;;;;11.60;8.20;;;9.00;99.90;;;;;;5063849;28;20529;-75
2022/10/13 03:36:46;;;;;;;8.83;7.93;;;9.00;99.90;;;;;;5064227;28;20467;-75
2022/10/13 03:39:13;;;;;;;8.87;7.97;;;8.90;99.90;;;;;;5064393;28;20511;-75
2022/10/13 03:41:40;;;;;;;9.20;7.90;;;8.80;99.90;;;;;;5064710;28;21009;-75
2022/10/13 03:44:11;;;;;;;10.60;9.47;;;8.80;99.90;;;;;;5064031;28;20513;-75
2022/10/13 03:46:38;;;;;;;10.50;9.40;;;8.80;99.90;;;;;;5063968;28;20452;-75
2022/10/13 03:49:05;;;;;;;10.23;7.93;;;8.80;99.90;;;;;;5062438;28;20536;-75
2022/10/13 03:51:32;;;;;;;9.63;8.57;;;8.80;99.90;;;;;;5064738;28;20503;-75
2022/10/13 03:53:59;;;;;;;9.40;8.40;;;8.90;99.90;;;;;;5064450;28;20456;-75
2022/10/13 03:56:27;;;;;;;11.30;10.20;;;8.90;99.90;;;;;;5065118;28;20463;-75
2022/10/13 03:58:56;;;;;;;14.70;10.33;;;8.90;99.90;;;;;;5062842;28;20540;-75
2022/10/13 04:01:26;;;;;;;19.27;11.67;;;8.90;99.90;;;;;;5064293;28;20455;-75
2022/10/13 04:03:55;;;;;;;11.90;9.30;;;9.00;99.90;;;;;;5062120;28;20956;-76
2022/10/13 04:06:23;;;;;;;11.90;10.70;;;9.00;99.90;;;;;;5064750;28;20459;-75
2022/10/13 04:08:50;;;;;;;12.27;8.97;;;9.00;99.90;;;;;;5062751;28;20495;-75
2022/10/13 04:11:18;;;;;;;11.67;9.03;;;9.00;99.90;;;;;;5061802;28;20569;-75
2022/10/13 04:13:46;;;;;;;11.00;9.80;;;9.00;99.90;;;;;;5062296;28;20468;-75
2022/10/13 04:16:14;;;;;;;9.90;8.90;;;9.10;99.90;;;;;;5063044;28;20546;-75
2022/10/13 04:18:43;;;;;;;10.13;9.13;;;9.00;99.90;;;;;;5061071;28;20443;-75
2022/10/13 04:21:12;;;;;;;14.00;9.07;;;9.10;99.90;;;;;;5060546;28;20529;-75
2022/10/13 04:23:39;;;;;;;10.30;9.07;;;9.10;99.90;;;;;;5060666;28;20452;-75
2022/10/13 04:26:06;;;;;;;11.07;10.07;;;9.30;99.90;;;;;;5062982;28;20536;-75
2022/10/13 04:28:34;;;;;;;9.20;8.30;;;9.20;99.90;;;;;;5060720;28;20487;-75
2022/10/13 04:31:01;;;;;;;10.97;8.80;;;9.20;99.90;;;;;;5063088;28;20934;-75
2022/10/13 04:33:28;;;;;;;10.20;9.10;;;9.20;99.90;;;;;;5065193;28;21070;-75
2022/10/13 04:35:57;;;;;;;13.60;9.00;;;9.00;99.90;;;;;;5060956;28;20487;-75
2022/10/13 04:38:24;;;;;;;8.90;7.97;;;9.10;99.90;;;;;;5064378;28;20561;-75
2022/10/13 04:40:51;;;;;;;14.43;12.80;;;9.10;99.90;;;;;;5062315;28;20495;-75
2022/10/13 04:43:18;;;;;;;30.03;10.47;;;9.10;99.90;;;;;;5063142;28;20459;-75
2022/10/13 04:45:45;;;;;;;10.30;9.33;;;9.10;99.90;;;;;;5056218;28;20492;-75
2022/10/13 04:48:12;;;;;;;12.40;8.60;;;9.20;99.90;;;;;;5058093;28;20504;-75
2022/10/13 04:50:39;;;;;;;11.13;8.90;;;9.20;99.90;;;;;;5061049;28;20517;-75
2022/10/13 04:53:07;;;;;;;10.33;9.20;;;9.00;99.90;;;;;;5063269;28;20919;-75
2022/10/13 04:55:36;;;;;;;9.27;8.40;;;9.00;99.90;;;;;;5062964;28;20588;-75
2022/10/13 04:58:03;;;;;;;12.97;8.97;;;9.10;99.90;;;;;;5056029;28;20447;-76
2022/10/13 05:00:30;;;;;;;11.73;8.93;;;9.10;99.90;;;;;;5054772;28;21176;-75
2022/10/13 05:02:57;;;;;;;10.27;8.67;;;9.10;99.90;;;;;;5064984;28;20444;-75
2022/10/13 05:05:24;;;;;;;18.80;10.73;;;9.10;99.90;;;;;;5066889;28;20517;-75
2022/10/13 05:07:50;;;;;;;10.90;9.23;;;9.10;99.90;;;;;;5064116;28;20440;-75
2022/10/13 05:10:19;;;;;;;18.73;9.80;;;9.00;99.90;;;;;;5060825;28;20673;-75
2022/10/13 05:12:46;;;;;;;9.97;8.90;;;9.00;99.90;;;;;;5064008;28;20515;-76
2022/10/13 05:15:13;;;;;;;9.43;8.53;;;9.00;99.90;;;;;;5058328;28;20487;-77
2022/10/13 05:17:40;;;;;;;11.10;9.10;;;9.10;99.90;;;;;;5068933;28;20460;-76
2022/10/13 05:20:08;;;;;;;10.20;8.63;;;9.10;99.90;;;;;;5065480;28;20491;-76
2022/10/13 05:22:35;;;;;;;9.90;8.90;;;9.00;99.90;;;;;;5062277;28;20525;-76
2022/10/13 05:25:02;;;;;;;12.60;8.70;;;9.00;99.90;;;;;;5058224;28;20460;-76
2022/10/13 05:27:30;;;;;;;9.83;8.87;;;9.00;99.90;;;;;;5065760;28;20480;-76
2022/10/13 05:29:57;;;;;;;17.27;9.10;;;9.00;99.90;;;;;;5060872;28;20440;-76
2022/10/13 05:32:24;;;;;;;9.10;8.20;;;9.10;99.90;;;;;;5064324;28;20515;-76
2022/10/13 05:34:51;;;;;;;11.43;9.07;;;9.10;99.90;;;;;;5057872;28;21135;-76
2022/10/13 05:37:18;;;;;;;10.50;8.90;;;9.20;99.90;;;;;;5060068;28;20489;-77
2022/10/13 05:39:45;;;;;;;12.30;9.47;;;9.10;99.90;;;;;;5063884;28;20554;-76
2022/10/13 05:42:12;;;;;;;11.37;10.17;;;9.00;99.90;;;;;;5053193;28;20514;-77
2022/10/13 05:44:40;;;;;;;10.83;9.90;;;9.00;99.90;;;;;;5060898;28;20490;-76
2022/10/13 05:47:07;;;;;;;15.13;9.70;;;9.10;99.90;;;;;;5053963;28;20577;-77
2022/10/13 05:49:38;;;;;;;13.03;10.37;;;9.10;99.90;;;;;;5060168;28;20468;-77
2022/10/13 05:52:08;;;;;;;9.57;8.70;;;9.20;99.90;;;;;;5053628;28;20940;-77
2022/10/13 05:54:39;;;;;;;11.17;9.43;;;9.20;99.90;;;;;;5052744;28;20484;-77
2022/10/13 05:57:10;;;;;;;9.47;8.40;;;9.20;99.90;;;;;;5058143;28;20517;-77
2022/10/13 05:59:43;;;;;;;10.83;9.80;;;9.20;99.90;;;;;;5058733;28;20463;-77
2022/10/13 06:02:14;;;;;;;11.53;10.43;;;9.30;99.90;;;;;;5058536;28;20459;-78
2022/10/13 06:04:43;;;;;;;13.30;10.60;;;9.30;99.90;;;;;;5056995;28;21030;-77
2022/10/13 06:07:10;;;;;;;11.57;9.43;;;9.30;99.90;;;;;;5055774;28;20548;-77
2022/10/13 06:09:38;;;;;;;11.20;9.97;;;9.30;99.90;;;;;;5058081;28;20495;-77
2022/10/13 06:12:06;;;;;;;9.90;9.00;;;9.30;99.90;;;;;;5061575;28;20551;-77
2022/10/13 06:14:33;;;;;;;11.37;9.80;;;9.30;99.90;;;;;;5060511;28;20521;-77
2022/10/13 06:17:01;;;;;;;13.17;8.93;;;9.30;99.90;;;;;;5055234;28;20545;-77
2022/10/13 06:19:28;;;;;;;10.30;9.07;;;9.30;99.90;;;;;;5051129;28;20464;-77
2022/10/13 06:21:55;;;;;;;9.23;8.37;;;9.40;99.90;;;;;;5051654;28;20492;-77
2022/10/13 06:24:22;;;;;;;11.73;10.27;;;9.50;99.90;;;;;;5057756;28;20865;-77
2022/10/13 06:26:49;;;;;;;11.27;9.47;;;9.50;99.90;;;;;;5061751;28;20851;-76
2022/10/13 06:29:16;;;;;;;11.50;8.40;;;9.50;99.90;;;;;;5057233;28;20548;-77
2022/10/13 06:31:43;;;;;;;9.60;8.70;;;9.60;99.90;;;;;;5064834;28;20443;-77
2022/10/13 06:34:11;;;;;;;13.00;10.50;;;9.60;99.90;;;;;;5060957;28;20540;-77
2022/10/13 06:36:38;;;;;;;10.40;9.00;;;9.60;99.90;;;;;;5060234;28;20470;-77
2022/10/13 06:39:05;;;;;;;12.53;9.20;;;9.70;99.90;;;;;;5061522;28;21292;-77
2022/10/13 06:41:32;;;;;;;12.50;11.30;;;9.70;99.90;;;;;;5060052;28;20464;-77
2022/10/13 06:43:59;;;;;;;13.10;10.70;;;9.90;99.90;;;;;;5059080;28;20455;-77
2022/10/13 06:46:26;;;;;;;10.57;7.93;;;9.80;99.90;;;;;;5060107;28;20797;-77
2022/10/13 06:48:54;;;;;;;16.83;10.67;;;9.80;99.90;;;;;;5059768;28;20472;-77
2022/10/13 06:51:22;;;;;;;9.93;8.90;;;10.00;99.90;;;;;;5053000;28;20552;-76
2022/10/13 06:53:49;;;;;;;10.20;9.07;;;9.80;99.90;;;;;;5056554;28;20519;-77
2022/10/13 06:56:16;;;;;;;9.87;8.73;;;9.90;99.90;;;;;;5058527;28;20495;-78
2022/10/13 06:58:43;;;;;;;13.40;10.17;;;9.90;99.90;;;;;;5051953;28;20476;-77
2022/10/13 07:01:13;;;;;;;11.07;9.67;;;9.90;99.90;;;;;;5060616;28;21188;-77
2022/10/13 07:03:40;;;;;;;10.73;9.20;;;9.80;99.90;;;;;;5054719;28;20455;-77
2022/10/13 07:06:08;;;;;;;8.87;7.87;;;9.80;99.90;;;;;;5053460;28;20460;-76
2022/10/13 07:08:36;;;;;;;12.77;9.60;;;9.80;99.90;;;;;;5059540;28;21153;-76
2022/10/13 07:11:07;;;;;;;10.93;9.83;;;9.70;99.90;;;;;;5056916;28;20487;-76
2022/10/13 07:13:34;;;;;;;15.50;9.87;;;9.90;99.90;;;;;;5056564;28;20821;-77
2022/10/13 07:16:04;;;;;;;11.97;9.70;;;10.00;99.90;;;;;;5052280;28;20566;-76
2022/10/13 07:18:31;;;;;;;10.27;9.27;;;10.10;99.90;;;;;;5056692;28;20514;-77
2022/10/13 07:20:59;;;;;;;14.40;11.30;;;10.20;99.90;;;;;;5060234;28;20468;-77
2022/10/13 07:23:26;;;;;;;11.57;10.40;;;10.20;99.90;;;;;;5062340;28;20481;-77
2022/10/13 07:25:56;;;;;;;11.60;8.23;;;10.20;99.90;;;;;;5055810;28;20865;-77
2022/10/13 07:28:23;;;;;;;12.00;8.77;;;10.20;99.90;;;;;;5063041;28;20536;-77
2022/10/13 07:30:50;;;;;;;11.13;8.07;;;10.20;99.90;;;;;;5062353;28;20464;-77
2022/10/13 07:33:18;;;;;;;9.33;8.50;;;10.40;99.90;;;;;;5058004;28;20489;-77
2022/10/13 07:35:45;;;;;;;8.97;7.70;;;10.50;99.90;;;;;;5046070;28;20932;-77
2022/10/13 07:38:12;;;;;;;9.67;8.70;;;10.40;99.90;;;;;;5059361;28;20464;-76
2022/10/13 07:40:39;;;;;;;11.50;9.50;;;10.40;99.90;;;;;;5061757;28;20547;-76
2022/10/13 07:43:07;;;;;;;13.33;12.00;;;10.70;99.90;;;;;;5057239;28;20517;-76
2022/10/13 07:45:34;;;;;;;13.67;10.70;;;10.70;99.90;;;;;;5058086;28;20479;-77
2022/10/13 07:48:01;;;;;;;10.27;9.30;;;10.90;99.90;;;;;;5057746;28;20487;-77
2022/10/13 07:50:28;;;;;;;9.50;8.60;;;10.90;99.90;;;;;;5062302;28;21068;-77
2022/10/13 07:52:56;;;;;;;11.40;9.90;;;10.90;99.90;;;;;;5064375;28;20516;-76
2022/10/13 07:55:23;;;;;;;12.07;10.27;;;11.00;99.90;;;;;;5059321;28;21028;-77
2022/10/13 07:57:50;;;;;;;14.03;10.20;;;11.20;99.90;;;;;;5060222;28;20456;-77
2022/10/13 08:00:19;;;;;;;10.93;9.00;;;11.40;99.90;;;;;;5062872;28;20521;-77
2022/10/13 08:02:49;;;;;;;8.50;7.70;;;11.50;99.90;;;;;;5061879;28;20452;-77
2022/10/13 08:05:17;;;;;;;9.13;8.13;;;11.40;99.90;;;;;;5065221;28;21305;-76
2022/10/13 08:07:44;;;;;;;16.67;9.90;;;11.50;99.90;;;;;;5066562;28;20468;-76
2022/10/13 08:10:12;;;;;;;8.90;7.77;;;11.60;99.90;;;;;;5062662;28;20460;-76
2022/10/13 08:12:39;;;;;;;13.47;9.13;;;11.50;99.90;;;;;;5062305;28;20460;-76
2022/10/13 08:15:08;;;;;;;10.03;9.00;;;11.70;99.90;;;;;;5064899;28;20513;-76
2022/10/13 08:17:37;;;;;;;12.83;10.17;;;11.70;99.90;;;;;;5062699;28;20484;-76
2022/10/13 08:20:05;;;;;;;12.03;10.10;;;11.80;99.90;;;;;;5060722;28;20453;-76
2022/10/13 08:22:33;;;;;;;14.33;9.17;;;12.10;99.90;;;;;;5063347;28;20807;-76
2022/10/13 08:25:01;;;;;;;18.27;8.20;;;12.50;99.90;;;;;;5058193;28;20849;-76
2022/10/13 08:27:28;;;;;;;10.43;9.30;;;12.60;99.90;;;;;;5062229;28;20591;-76
2022/10/13 08:29:55;;;;;;;12.80;10.37;;;12.80;99.90;;;;;;5062846;28;20465;-77
2022/10/13 08:32:22;;;;;;;13.70;10.27;;;12.90;99.90;;;;;;5065903;28;20453;-76
2022/10/13 08:34:51;;;;;;;10.63;8.37;;;13.20;99.90;;;;;;5066324;28;20512;-76
2022/10/13 08:37:20;;;;;;;10.17;9.10;;;13.10;99.90;;;;;;5061848;28;21195;-76
2022/10/13 08:39:47;;;;;;;9.03;8.13;;;13.00;99.90;;;;;;5061924;28;20458;-76
2022/10/13 08:42:17;;;;;;;8.77;7.97;;;13.00;99.90;;;;;;5065603;28;20515;-76
2022/10/13 08:44:48;;;;;;;9.77;8.83;;;13.10;99.90;;;;;;5056737;28;20456;-76
2022/10/13 08:47:33;;;;;;;10.57;8.70;;;13.40;99.90;;;;;;5049466;28;20907;-76
2022/10/13 08:50:05;;;;;;;14.00;8.87;;;13.30;99.90;;;;;;5064564;28;20497;-76
2022/10/13 08:52:46;;;;;;;13.00;8.63;;;13.50;99.90;;;;;;5061690;28;20524;-76
2022/10/13 08:55:21;;;;;;;13.27;9.53;;;13.60;99.90;;;;;;5061876;28;20462;-76
2022/10/13 08:57:48;;;;;;;10.43;9.10;;;13.50;99.90;;;;;;5061232;28;20465;-76
2022/10/13 09:00:15;;;;;;;10.07;8.50;;;13.60;99.90;;;;;;5063341;28;20528;-77
2022/10/13 09:02:43;;;;;;;10.33;8.40;;;13.80;99.90;;;;;;5062863;28;20462;-76
2022/10/13 09:05:18;;;;;;;9.00;7.40;;;13.80;99.90;;;;;;5062516;28;20556;-77
2022/10/13 09:07:47;;;;;;;9.97;8.90;;;14.00;99.90;;;;;;5065118;28;20457;-76
2022/10/13 09:10:15;;;;;;;8.37;7.50;;;13.90;99.90;;;;;;5065051;28;20464;-76
2022/10/13 09:12:42;;;;;;;11.40;9.13;;;14.20;99.90;;;;;;5064380;28;20470;-77
2022/10/13 09:15:11;;;;;;;18.40;10.00;;;14.20;99.90;;;;;;5065173;28;20609;-76
2022/10/13 09:17:39;;;;;;;13.13;8.37;;;14.50;99.90;;;;;;5062695;28;20475;-76
2022/10/13 09:20:16;;;;;;;10.80;8.20;;;14.40;99.90;;;;;;5057890;28;20894;-76
2022/10/13 09:22:45;;;;;;;12.97;8.43;;;14.40;99.90;;;;;;5073649;28;20455;-76
2022/10/13 09:25:21;;;;;;;12.70;8.30;;;14.30;99.90;;;;;;5065462;28;20522;-76
2022/10/13 09:27:49;;;;;;;9.00;8.27;;;14.40;99.90;;;;;;5070711;28;20478;-76
2022/10/13 09:30:27;;;;;;;15.53;9.87;;;14.00;99.90;;;;;;5060546;28;20463;-76
2022/10/13 09:33:06;;;;;;;9.60;8.60;;;14.00;99.90;;;;;;5059744;28;20509;-76
2022/10/13 09:35:33;;;;;;;10.03;9.03;;;14.50;99.90;;;;;;5064260;28;20457;-76
2022/10/13 09:38:06;;;;;;;9.70;7.90;;;14.30;99.90;;;;;;5061635;28;20477;-76
2022/10/13 09:40:34;;;;;;;11.40;10.20;;;14.40;99.90;;;;;;5062937;28;20471;-76
2022/10/13 09:43:05;;;;;;;14.17;9.10;;;14.20;99.90;;;;;;5064951;28;20520;-76
2022/10/13 09:45:32;;;;;;;9.10;7.57;;;14.10;99.90;;;;;;5058903;28;20946;-76
2022/10/13 09:48:03;;;;;;;9.33;8.47;;;14.10;99.90;;;;;;5063633;28;20452;-76
2022/10/13 09:50:32;;;;;;;9.10;8.30;;;14.10;99.90;;;;;;5065770;28;20497;-76
2022/10/13 09:53:18;;;;;;;11.37;8.97;;;14.00;99.90;;;;;;5059238;28;20472;-76
2022/10/13 09:55:47;;;;;;;12.47;9.00;;;14.30;99.90;;;;;;5065017;28;20525;-76
2022/10/13 09:58:19;;;;;;;10.50;9.10;;;14.20;99.90;;;;;;5055238;28;20456;-76
2022/10/13 10:00:49;;;;;;;9.23;8.43;;;14.10;99.90;;;;;;5055740;28;20991;-76
2022/10/13 10:03:21;;;;;;;10.23;9.00;;;14.20;99.90;;;;;;5055329;28;20535;-76
2022/10/13 10:05:52;;;;;;;11.10;9.10;;;14.40;99.90;;;;;;5056534;28;20464;-76
2022/10/13 10:08:26;;;;;;;8.40;7.70;;;14.40;99.90;;;;;;5058789;28;20554;-76
2022/10/13 10:10:54;;;;;;;12.40;8.57;;;14.30;99.90;;;;;;5054087;28;20472;-76
2022/10/13 10:13:23;;;;;;;11.73;10.30;;;14.40;99.90;;;;;;5063314;28;20460;-76
2022/10/13 10:15:55;;;;;;;10.87;8.40;;;14.40;99.90;;;;;;5064684;28;20872;-76
2022/10/13 10:18:31;;;;;;;11.37;9.80;;;14.50;99.90;;;;;;5056396;28;20954;-76
2022/10/13 10:21:06;;;;;;;12.07;9.60;;;14.40;99.90;;;;;;5058092;28;20929;-76
2022/10/13 10:23:43;;;;;;;10.97;8.60;;;14.90;99.90;;;;;;5064251;28;20541;-78
2022/10/13 10:26:16;;;;;;;13.67;8.77;;;14.70;99.90;;;;;;5053315;28;20517;-76
2022/10/13 10:29:09;;;;;;;10.53;8.73;;;14.80;99.90;;;;;;5059723;28;20497;-76
2022/10/13 10:31:49;;;;;;;10.00;8.73;;;15.10;99.90;;;;;;5060111;28;20531;-76
2022/10/13 10:34:30;;;;;;;10.57;9.60;;;15.30;99.90;;;;;;5058681;28;20826;-76
2022/10/13 10:37:14;;;;;;;11.23;8.33;;;15.50;99.90;;;;;;5062712;28;20475;-77
2022/10/13 10:39:48;;;;;;;7.60;6.80;;;15.10;99.90;;;;;;5050271;28;20548;-77
2022/10/13 10:42:57;;;;;;;10.67;8.50;;;15.50;99.90;;;;;;5060140;28;20495;-77
2022/10/13 10:45:27;;;;;;;11.17;8.90;;;15.40;99.90;;;;;;5015136;28;20485;-76
2022/10/13 10:47:59;;;;;;;12.40;9.53;;;15.10;99.90;;;;;;5017494;28;20534;-77
2022/10/13 10:50:26;;;;;;;13.67;9.90;;;15.00;99.90;;;;;;5032606;28;20468;-77
2022/10/13 10:53:01;;;;;;;16.47;10.07;;;14.90;99.90;;;;;;5062248;28;20458;-76
2022/10/13 10:55:33;;;;;;;12.40;9.10;;;15.00;99.90;;;;;;5062250;28;20489;-76
2022/10/13 10:58:09;;;;;;;13.03;10.20;;;15.50;99.90;;;;;;5062214;28;20514;-77
2022/10/13 11:00:42;;;;;;;18.57;9.80;;;15.60;99.90;;;;;;5055185;28;20466;-77
2022/10/13 11:03:18;;;;;;;10.80;9.70;;;15.60;99.90;;;;;;5054842;28;20628;-77
2022/10/13 11:06:03;;;;;;;10.23;9.30;;;15.70;99.90;;;;;;5060863;28;20523;-76
2022/10/13 11:08:39;;;;;;;11.27;9.43;;;16.00;99.90;;;;;;5060079;28;20551;-76
2022/10/13 11:11:37;;;;;;;13.80;10.60;;;16.30;99.90;;;;;;5061868;28;20918;-77
2022/10/13 11:14:25;;;;;;;10.40;9.30;;;16.20;99.90;;;;;;5057733;28;20503;-76
2022/10/13 11:17:16;;;;;;;12.87;9.00;;;15.90;99.90;;;;;;5062855;28;20880;-77
2022/10/13 11:19:44;;;;;;;19.13;9.97;;;16.10;99.90;;;;;;5061029;28;20930;-76
2022/10/13 11:22:16;;;;;;;11.00;9.90;;;16.10;99.90;;;;;;5046333;28;21649;-76
2022/10/13 11:24:59;;;;;;;11.20;8.77;;;16.20;99.90;;;;;;5061378;28;20517;-76
2022/10/13 11:27:42;;;;;;;9.57;8.43;;;16.00;99.90;;;;;;5050431;28;20600;-75
2022/10/13 11:30:51;;;;;;;10.57;9.50;;;16.00;99.90;;;;;;5064587;28;20485;-76
2022/10/13 11:33:53;;;;;;;15.03;10.30;;;16.20;99.90;;;;;;5051942;28;20470;-77
2022/10/13 11:36:48;;;;;;;16.03;8.53;;;16.20;99.90;;;;;;4972973;28;20522;-76
2022/10/13 11:39:49;;;;;;;10.33;8.77;;;16.10;99.90;;;;;;4980058;28;20930;-76
2022/10/13 11:42:54;;;;;;;10.20;8.60;;;16.40;99.90;;;;;;5055710;28;20472;-77
2022/10/13 11:45:37;;;;;;;12.23;10.20;;;16.70;99.90;;;;;;5049977;28;20525;-76
2022/10/13 11:48:36;;;;;;;17.60;8.97;;;16.90;99.90;;;;;;5060915;28;20512;-77
2022/10/13 11:51:19;;;;;;;9.93;8.97;;;16.90;99.90;;;;;;5045707;28;20456;-77
2022/10/13 11:53:54;;;;;;;8.23;7.23;;;16.90;99.90;;;;;;5065325;28;21012;-77
2022/10/13 11:56:23;;;;;;;11.43;10.30;;;17.40;99.90;;;;;;5056821;28;20483;-76
2022/10/13 11:58:50;;;;;;;11.17;10.07;;;17.50;99.90;;;;;;5064196;28;20455;-76
2022/10/13 12:01:19;;;;;;;9.63;8.20;;;17.40;99.90;;;;;;5056202;28;20493;-76
2022/10/13 12:03:47;;;;;;;11.63;9.13;;;17.30;99.90;;;;;;5052054;28;20462;-76
2022/10/13 12:06:32;;;;;;;12.40;9.37;;;17.30;99.90;;;;;;5051765;28;20478;-76
2022/10/13 12:09:01;;;;;;;10.37;7.43;;;17.40;99.90;;;;;;5064336;28;20835;-76
2022/10/13 12:11:30;;;;;;;9.13;8.33;;;17.30;99.90;;;;;;5049835;28;20476;-76
2022/10/13 12:13:58;;;;;;;12.70;9.60;;;16.80;99.90;;;;;;5056129;28;20568;-76
2022/10/13 12:16:27;;;;;;;11.60;9.80;;;16.70;99.90;;;;;;5059967;28;20463;-76
2022/10/13 12:19:06;;;;;;;9.43;8.53;;;16.60;99.90;;;;;;5058834;28;20664;-76
2022/10/13 12:21:33;;;;;;;10.20;8.70;;;16.50;99.90;;;;;;5058281;28;20960;-75
2022/10/13 12:24:08;;;;;;;12.50;8.07;;;16.50;99.90;;;;;;5059656;28;20502;-75
2022/10/13 12:26:35;;;;;;;9.30;8.40;;;16.50;99.90;;;;;;5058507;28;20566;-75
2022/10/13 12:29:05;;;;;;;8.97;8.03;;;16.60;99.90;;;;;;5061946;28;20563;-75
2022/10/13 12:31:41;;;;;;;9.93;9.03;;;16.50;99.90;;;;;;5063098;28;21105;-75
2022/10/13 12:34:18;;;;;;;11.43;9.33;;;16.40;99.90;;;;;;5054002;28;20474;-75
2022/10/13 12:36:51;;;;;;;13.80;8.07;;;16.30;99.90;;;;;;5061711;28;20907;-75
2022/10/13 12:39:19;;;;;;;10.13;9.00;;;16.30;99.90;;;;;;5058860;28;20559;-75
2022/10/13 12:41:47;;;;;;;15.83;9.47;;;16.30;99.90;;;;;;5061361;28;20458;-75
2022/10/13 12:44:17;;;;;;;13.10;8.90;;;16.30;99.90;;;;;;5054446;28;20476;-75
2022/10/13 12:46:48;;;;;;;16.73;9.20;;;16.30;99.90;;;;;;5059059;28;20926;-75
2022/10/13 12:49:17;;;;;;;12.13;8.90;;;16.00;99.90;;;;;;5045119;28;20517;-75
2022/10/13 12:51:46;;;;;;;11.53;9.47;;;16.00;99.90;;;;;;5050983;28;20464;-75
2022/10/13 12:54:23;;;;;;;10.60;8.50;;;16.00;99.90;;;;;;5058443;28;20524;-75
2022/10/13 12:56:53;;;;;;;15.60;9.60;;;15.90;99.90;;;;;;5061631;28;20959;-75
2022/10/13 12:59:21;;;;;;;9.60;8.50;;;15.80;99.90;;;;;;5051335;28;20494;-75
2022/10/13 13:01:58;;;;;;;10.77;9.43;;;15.80;99.90;;;;;;5060196;28;20588;-75